Not for real navigation | The accuracy of this data is not assured | See disclaimer for more information
ICAO NAME COUNTRY WIND Kt GUST Kt VIS TEMP/DEW BARO
KYKN Yankton, Chan Gurney Municipal SD United States 40 45 400 -4/-6 29.83
KYKN 180610Z AUTO 30040G45KT 0.25SM +SN FZFG BKN005 BKN010 OVC014 M04/M06 A2983 RMK AO2 PK WND 30045/0609 WSHFT 0555 UPE01SNB01 PRESRR P0000 FZRANO
KCSM CLINTON-SHERMAN AIRPORT OK United States 16 0 800 6/6 29.98
KCSM 180553Z 23016KT 0.5SM -RA FG VV002 06/06 A2998 RMK AO2 SLP158 P0000 60000 T00610061 10061 20033 400611022 51015
ENGM Oslo / Gardermoen Norway 2 0 900 4/4 29.56
ENGM 180550Z 19002KT 0900 0550S R19R/1200D R01R/1000D R19L/1200N R01L/0650N -RA FG VV002 04/04 Q1001 TEMPO 0500 FG VV001
KSUE Sturgeon Bay WI United States 13 22 1200 -3/-4 30.17
KSUE 180613Z AUTO 13013G22KT 0.75SM -SN BR OVC005 M03/M04 A3017 RMK AO2 CIG 003V010 P0000 FZRANO RVRNO $
PAMY Mekoryuk, Mekoryuk Airport AK United States 3 0 1200 -21/-22 29.70
PAMY 180608Z AUTO 18003KT 0.75SM BR OVC001 M21/M22 A2970 RMK AO2 FZRANO

Show more

Close Menu